Venetia — YQGV — position and weather

sailwx.info

Track history (hours):
 
Tides and Currents Weather Stations Pressure Air Temp Water Temp Dewpoint Dewpoint Depression Visibility Wind Speed Wind Dir Waves Ship Positions

Venetia

Last reported at 2018-Jan-20 10:56 UTC. Time now 2018-Jan-20 11:04 UTC.
Position N 44°10' E 028°39'.

Length 10 m; draft 1 m.

Type: Pilot. MMSI: 264900229.

Date/timePositionNaut miles runAvg speedWind from/ knotsBaromVisibWave heightAir tempDewpointWater temp
2018-Jan-20 10:56N 44°10' E 028°39'510.8
2018-Jan-20 10:30N 44°06' E 028°43'5 9.1
2018-Jan-20 10:00N 44°07' E 028°49'4 8.3
2018-Jan-20 09:30N 44°06' E 028°44'  
2018-Jan-11 08:36N 44°10' E 028°39'1 8.6
2018-Jan-11 08:30N 44°09' E 028°40'0 0.1
2018-Jan-11 08:01N 44°09' E 028°40'1 1.7
2018-Jan-11 07:30N 44°10' E 028°39'1 1.0
2018-Jan-11 07:00N 44°09' E 028°40'2 3.3
2018-Jan-11 06:30N 44°08' E 028°40'2 3.1
2018-Jan-11 06:00N 44°07' E 028°42'4 5.4
2018-Jan-11 05:21N 44°10' E 028°39'2 6.2
2018-Jan-11 05:00N 44°08' E 028°41'2 4.2
2018-Jan-11 04:30N 44°10' E 028°39'0 0.0
2018-Jan-11 04:00N 44°10' E 028°39'0 0.0
2018-Jan-11 03:30N 44°10' E 028°39'2 3.1
2018-Jan-11 03:01N 44°08' E 028°40'2 4.3
2018-Jan-11 02:31N 44°06' E 028°41'4 7.4
2018-Jan-11 02:01N 44°10' E 028°39'0 0.0
2018-Jan-11 01:31N 44°10' E 028°39'0 0.0
2018-Jan-11 01:01N 44°10' E 028°39'0 0.0
2018-Jan-11 00:31N 44°10' E 028°39'0 0.0
2018-Jan-11 00:01N 44°10' E 028°39'0 0.0
2018-Jan-10 23:30N 44°10' E 028°39'0 0.0
2018-Jan-10 23:01N 44°10' E 028°39'4 7.5
2018-Jan-10 22:30N 44°06' E 028°42'3 5.4
2018-Jan-10 22:00N 44°09' E 028°40'3 5.5
2018-Jan-10 21:30N 44°06' E 028°42'3 6.0
2018-Jan-10 21:00N 44°09' E 028°40'1 1.6
2018-Jan-10 20:30N 44°10' E 028°39'0 0.0
2018-Jan-10 20:00N 44°10' E 028°39'0 0.0
2018-Jan-10 19:30N 44°10' E 028°39'4 7.2
2018-Jan-10 19:00N 44°06' E 028°41'0 0.6
2018-Jan-10 18:30N 44°06' E 028°41'1 1.0
2018-Jan-10 18:00N 44°07' E 028°42'3 6.8
2018-Jan-10 17:30N 44°10' E 028°39'0 0.0
2018-Jan-10 17:00N 44°10' E 028°39'0 0.0
2018-Jan-10 16:30N 44°10' E 028°39'0 0.7
2018-Jan-10 16:00N 44°09' E 028°40'2 4.4
2018-Jan-10 15:30N 44°07' E 028°41'1 2.7
2018-Jan-10 15:00N 44°06' E 028°42'4 7.7
2018-Jan-10 14:30N 44°10' E 028°39'0 0.0
2018-Jan-10 14:00N 44°10' E 028°39'0 0.0
2018-Jan-10 13:30N 44°10' E 028°39'0 0.0
2018-Jan-10 13:00N 44°10' E 028°39'0 0.0
2018-Jan-10 12:30N 44°10' E 028°39'0 0.0
2018-Jan-10 12:00N 44°10' E 028°39'0 0.0
2018-Jan-10 11:30N 44°10' E 028°39'0 0.0
2018-Jan-10 11:00N 44°10' E 028°39'  
Track history (hours):
 
Tides and Currents Weather Stations Pressure Air Temp Water Temp Dewpoint Dewpoint Depression Visibility Wind Speed Wind Dir Waves Ship Positions

Venetia

Last reported at 2018-Jan-20 10:56 UTC. Time now 2018-Jan-20 11:04 UTC.
Position N 44°10' E 028°39'.

Length 10 m; draft 1 m.

Type: Pilot. MMSI: 264900229.

Date/timePositionNaut miles runAvg speedWind from/ knotsBaromVisibWave heightAir tempDewpointWater temp
2018-Jan-20 10:56N 44°10' E 028°39'510.8
2018-Jan-20 10:30N 44°06' E 028°43'5 9.1
2018-Jan-20 10:00N 44°07' E 028°49'4 8.3
2018-Jan-20 09:30N 44°06' E 028°44'  
2018-Jan-11 08:36N 44°10' E 028°39'1 8.6
2018-Jan-11 08:30N 44°09' E 028°40'0 0.1
2018-Jan-11 08:01N 44°09' E 028°40'1 1.7
2018-Jan-11 07:30N 44°10' E 028°39'1 1.0
2018-Jan-11 07:00N 44°09' E 028°40'2 3.3
2018-Jan-11 06:30N 44°08' E 028°40'2 3.1
2018-Jan-11 06:00N 44°07' E 028°42'4 5.4
2018-Jan-11 05:21N 44°10' E 028°39'2 6.2
2018-Jan-11 05:00N 44°08' E 028°41'2 4.2
2018-Jan-11 04:30N 44°10' E 028°39'0 0.0
2018-Jan-11 04:00N 44°10' E 028°39'0 0.0
2018-Jan-11 03:30N 44°10' E 028°39'2 3.1
2018-Jan-11 03:01N 44°08' E 028°40'2 4.3
2018-Jan-11 02:31N 44°06' E 028°41'4 7.4
2018-Jan-11 02:01N 44°10' E 028°39'0 0.0
2018-Jan-11 01:31N 44°10' E 028°39'0 0.0
2018-Jan-11 01:01N 44°10' E 028°39'0 0.0
2018-Jan-11 00:31N 44°10' E 028°39'0 0.0
2018-Jan-11 00:01N 44°10' E 028°39'0 0.0
2018-Jan-10 23:30N 44°10' E 028°39'0 0.0
2018-Jan-10 23:01N 44°10' E 028°39'4 7.5
2018-Jan-10 22:30N 44°06' E 028°42'3 5.4
2018-Jan-10 22:00N 44°09' E 028°40'3 5.5
2018-Jan-10 21:30N 44°06' E 028°42'3 6.0
2018-Jan-10 21:00N 44°09' E 028°40'1 1.6
2018-Jan-10 20:30N 44°10' E 028°39'0 0.0
2018-Jan-10 20:00N 44°10' E 028°39'0 0.0
2018-Jan-10 19:30N 44°10' E 028°39'4 7.2
2018-Jan-10 19:00N 44°06' E 028°41'0 0.6
2018-Jan-10 18:30N 44°06' E 028°41'1 1.0
2018-Jan-10 18:00N 44°07' E 028°42'3 6.8
2018-Jan-10 17:30N 44°10' E 028°39'0 0.0
2018-Jan-10 17:00N 44°10' E 028°39'0 0.0
2018-Jan-10 16:30N 44°10' E 028°39'0 0.7
2018-Jan-10 16:00N 44°09' E 028°40'2 4.4
2018-Jan-10 15:30N 44°07' E 028°41'1 2.7
2018-Jan-10 15:00N 44°06' E 028°42'4 7.7
2018-Jan-10 14:30N 44°10' E 028°39'0 0.0
2018-Jan-10 14:00N 44°10' E 028°39'0 0.0
2018-Jan-10 13:30N 44°10' E 028°39'0 0.0
2018-Jan-10 13:00N 44°10' E 028°39'0 0.0
2018-Jan-10 12:30N 44°10' E 028°39'0 0.0
2018-Jan-10 12:00N 44°10' E 028°39'0 0.0
2018-Jan-10 11:30N 44°10' E 028°39'0 0.0
2018-Jan-10 11:00N 44°10' E 028°39'  

Dump ship's entire track history